ADDS METAR Data

Data at: 2308 UTC 15 Aug 2018

METAR for:KSAN (San Diego Intl Arpt, CA, US)
Text:KSAN 152255Z 22008KT 10SM SCT022 25/18 A2992 RMK AO2 T02500183
Temperature: 25.0°C ( 77°F)
Dewpoint: 18.3°C ( 65°F) [RH = 66%]
Pressure (altimeter):29.92 inches Hg (1013.3 mb)
Winds:from the SW (220 degrees) at 9 MPH (8 knots; 4.1 m/s)
Visibility:10 or more sm (16+ km)
Ceiling:at least 12,000 feet AGL
Clouds: scattered clouds at 2200 feet AGL